Terminal Aerodrome Forecast
Issued by NWS Caribou, ME

Home | Current Version | Previous Version | Text Only | Print | Product List | Glossary On
Versions: 1 2 3 4 5 6 7 8 9 10 11 12 13 14 15 16 17
000
FTUS41 KCAR 031759
TAFBGR
TAF
KBGR 031759Z 0318/0418 22005KT P6SM BKN250
     FM040100 18007KT 2SM -SN OVC030
     FM040500 17010KT 1SM -SN OVC008
     FM040700 19011KT 3SM -SN OVC003
     FM041100 20010G20KT P6SM OVC015
     FM041400 22010G17KT P6SM BKN025
     FM041500 23010G17KT P6SM BKN100=

USA.gov is the U.S. government's official web portal to all federal, state and local government web resources and services.